createdAt,value
2019-02-15T00:01:35.431Z,17.27
2019-02-15T00:04:03.907Z,14.97
2019-02-15T00:06:32.114Z,14.93
2019-02-15T00:09:00.261Z,16.47
2019-02-15T00:11:28.663Z,15.27
2019-02-15T00:13:56.794Z,16.60
2019-02-15T00:16:44.436Z,14.87
2019-02-15T00:19:17.067Z,16.77
2019-02-15T00:21:45.243Z,17.70
2019-02-15T00:24:13.623Z,16.53
2019-02-15T00:27:01.094Z,14.87
2019-02-15T00:32:30.805Z,15.63
2019-02-15T00:35:18.293Z,17.50
2019-02-15T00:37:46.741Z,13.43
2019-02-15T00:40:14.908Z,15.20
2019-02-15T00:43:02.519Z,14.10
2019-02-15T00:57:43.120Z,15.87
2019-02-15T01:00:15.453Z,13.20
2019-02-15T01:03:03.050Z,15.73
2019-02-15T01:05:56.078Z,14.57
2019-02-15T01:08:26.099Z,13.93
2019-02-15T01:11:33.124Z,14.70
2019-02-15T01:14:02.131Z,16.57
2019-02-15T01:16:30.327Z,16.87
2019-02-15T01:19:18.000Z,14.77
2019-02-15T01:21:46.288Z,13.83
2019-02-15T01:24:14.442Z,15.10
2019-02-15T01:27:03.746Z,16.63
2019-02-15T01:29:51.278Z,12.97
2019-02-15T01:32:38.809Z,16.43
2019-02-15T01:35:26.217Z,14.70
2019-02-15T01:46:34.167Z,14.20
2019-02-15T01:49:02.278Z,14.50
2019-02-15T01:51:49.943Z,15.17
2019-02-15T01:54:18.077Z,14.23
2019-02-15T01:57:05.565Z,14.30
2019-02-15T01:59:33.755Z,12.80
2019-02-15T02:02:22.886Z,14.90
2019-02-15T02:05:10.542Z,16.07
2019-02-15T02:07:38.709Z,15.43
2019-02-15T02:10:27.679Z,13.57
2019-02-15T02:12:56.198Z,14.37
2019-02-15T02:15:43.748Z,13.37
2019-02-15T02:18:12.048Z,12.93
2019-02-15T02:21:01.006Z,14.83
2019-02-15T02:26:03.000Z,13.27
2019-02-15T02:28:31.331Z,14.23
2019-02-15T02:30:59.502Z,14.83
2019-02-15T02:33:27.816Z,13.60
2019-02-15T02:35:56.037Z,12.07
2019-02-15T02:38:24.175Z,12.43
2019-02-15T02:40:52.375Z,13.67
2019-02-15T02:43:20.521Z,12.70
2019-02-15T02:46:08.046Z,13.37
2019-02-15T02:48:36.189Z,13.97
2019-02-15T02:51:23.713Z,12.33
2019-02-15T02:53:51.869Z,12.07
2019-02-15T02:56:20.020Z,13.07
2019-02-15T02:58:48.197Z,14.43
2019-02-15T03:01:16.341Z,13.50
2019-02-15T03:03:44.481Z,10.77
2019-02-15T03:06:12.638Z,12.17
2019-02-15T03:08:40.782Z,17.50
2019-02-15T03:11:08.930Z,12.67
2019-02-15T03:13:37.261Z,13.13
2019-02-15T03:16:05.421Z,13.67
2019-02-15T03:18:53.073Z,13.30
2019-02-15T03:21:21.322Z,12.77
2019-02-15T03:24:09.211Z,14.97
2019-02-15T03:26:37.407Z,13.47
2019-02-15T03:29:05.553Z,12.80
2019-02-15T03:31:53.167Z,13.07
2019-02-15T03:34:21.321Z,12.40
2019-02-15T03:40:06.449Z,14.57
2019-02-15T03:42:34.614Z,14.57
2019-02-15T03:45:03.083Z,14.67
2019-02-15T03:47:31.267Z,13.37
2019-02-15T03:49:59.413Z,16.23
2019-02-15T03:52:27.609Z,14.23
2019-02-15T03:55:15.222Z,13.50
2019-02-15T03:58:02.783Z,12.93
2019-02-15T04:03:32.520Z,12.47
2019-02-15T04:06:00.665Z,12.97
2019-02-15T04:08:28.813Z,16.00
2019-02-15T04:10:57.196Z,12.10
2019-02-15T04:13:25.344Z,15.37
2019-02-15T04:16:12.978Z,12.57
2019-02-15T04:18:41.113Z,14.50
2019-02-15T04:21:09.257Z,13.97
2019-02-15T04:23:37.659Z,14.03
2019-02-15T04:26:05.855Z,12.30
2019-02-15T04:28:34.096Z,13.97
2019-02-15T04:31:02.390Z,15.43
2019-02-15T04:33:49.877Z,12.63
2019-02-15T04:39:45.110Z,14.23
2019-02-15T04:45:25.940Z,14.30
2019-02-15T04:47:54.102Z,12.93
2019-02-15T04:50:41.678Z,11.80
2019-02-15T04:53:09.811Z,13.50
2019-02-15T04:55:37.958Z,13.60
2019-02-15T04:58:06.262Z,12.37
2019-02-15T05:00:34.410Z,13.63
2019-02-15T05:03:02.601Z,12.30
2019-02-15T05:05:30.783Z,15.40
2019-02-15T05:07:58.942Z,13.60
2019-02-15T05:10:27.098Z,13.50
2019-02-15T05:12:55.319Z,13.33
2019-02-15T05:15:23.501Z,12.03
2019-02-15T05:18:11.135Z,11.80
2019-02-15T05:20:39.293Z,15.20
2019-02-15T05:23:07.535Z,11.87
2019-02-15T05:25:35.906Z,12.37
2019-02-15T05:28:04.085Z,13.07
2019-02-15T05:30:32.293Z,12.47
2019-02-15T05:33:00.478Z,11.07
2019-02-15T05:35:28.671Z,13.10
2019-02-15T05:37:56.821Z,13.13
2019-02-15T05:40:25.149Z,14.27
2019-02-15T05:42:53.310Z,13.47
2019-02-15T05:45:40.955Z,14.93
2019-02-15T05:48:09.199Z,14.27
2019-02-15T05:50:37.413Z,12.90
2019-02-15T05:53:06.048Z,13.77
2019-02-15T05:55:53.602Z,11.97
2019-02-15T05:58:22.494Z,14.73
2019-02-15T06:00:50.616Z,12.47
2019-02-15T06:03:18.747Z,13.50
2019-02-15T06:05:47.101Z,13.77
2019-02-15T06:08:15.404Z,12.13
2019-02-15T06:10:43.615Z,13.50
2019-02-15T06:13:11.849Z,13.43
2019-02-15T06:15:40.048Z,14.37
2019-02-15T06:18:08.288Z,15.67
2019-02-15T06:20:36.549Z,12.30
2019-02-15T06:23:04.694Z,14.13
2019-02-15T06:25:32.843Z,14.17
2019-02-15T06:28:01.083Z,12.80
2019-02-15T06:30:48.611Z,16.43
2019-02-15T06:33:17.148Z,16.60
2019-02-15T06:36:04.635Z,16.17
2019-02-15T06:38:35.034Z,13.43
2019-02-15T06:41:03.072Z,16.03
2019-02-15T06:43:31.252Z,16.00
2019-02-15T06:45:59.433Z,14.00
2019-02-15T06:48:46.973Z,12.60
2019-02-15T06:51:15.550Z,15.00
2019-02-15T06:53:43.757Z,14.87
2019-02-15T06:56:11.925Z,17.43
2019-02-15T06:58:45.584Z,13.87
2019-02-15T07:04:03.534Z,15.03
2019-02-15T07:06:31.701Z,15.40
2019-02-15T07:09:19.253Z,16.40
2019-02-15T07:11:47.425Z,13.87
2019-02-15T07:14:15.674Z,14.30
2019-02-15T07:16:43.948Z,12.90
2019-02-15T07:19:12.076Z,13.13
2019-02-15T07:21:59.723Z,14.40
2019-02-15T07:24:27.944Z,14.57
2019-02-15T07:26:56.073Z,16.50
2019-02-15T07:29:24.287Z,12.40
2019-02-15T07:31:52.460Z,14.93
2019-02-15T07:34:40.136Z,13.57
2019-02-15T07:37:08.376Z,15.67
2019-02-15T07:39:36.584Z,14.83
2019-02-15T07:42:04.960Z,14.10
2019-02-15T07:44:52.453Z,13.87
2019-02-15T07:47:20.706Z,13.13
2019-02-15T07:50:08.262Z,14.47
2019-02-15T07:52:36.990Z,14.17
2019-02-15T07:55:24.471Z,13.57
2019-02-15T07:57:52.866Z,15.20
2019-02-15T08:00:21.034Z,13.93
2019-02-15T08:02:49.196Z,14.90
2019-02-15T08:05:17.361Z,11.77
2019-02-15T08:07:45.572Z,16.70
2019-02-15T08:10:13.726Z,14.97
2019-02-15T08:12:42.268Z,14.87
2019-02-15T08:15:10.708Z,15.20
2019-02-15T08:17:38.851Z,13.70
2019-02-15T08:20:10.754Z,13.07
2019-02-15T08:22:38.906Z,15.00
2019-02-15T08:25:07.507Z,12.30
2019-02-15T08:27:35.876Z,13.03
2019-02-15T08:30:05.026Z,15.67
2019-02-15T08:32:34.595Z,12.37
2019-02-15T08:35:03.067Z,14.03
2019-02-15T08:37:31.238Z,13.70
2019-02-15T08:39:59.387Z,13.87
2019-02-15T08:42:27.663Z,13.77
2019-02-15T08:44:55.820Z,14.93
2019-02-15T08:47:23.996Z,14.53
2019-02-15T08:49:52.495Z,13.33
2019-02-15T08:52:20.643Z,15.80
2019-02-15T08:54:48.824Z,14.07
2019-02-15T08:57:17.123Z,15.87
2019-02-15T08:59:45.342Z,14.03
2019-02-15T09:02:17.609Z,13.87
2019-02-15T09:04:45.895Z,16.23
2019-02-15T09:07:14.028Z,15.67
2019-02-15T09:09:42.178Z,16.57
2019-02-15T09:12:10.481Z,18.77
2019-02-15T09:14:38.681Z,18.10
2019-02-15T09:17:06.822Z,18.57
2019-02-15T09:19:35.003Z,17.20
2019-02-15T09:22:03.142Z,17.63
2019-02-15T09:24:31.294Z,17.70
2019-02-15T09:27:01.162Z,17.30
2019-02-15T09:29:29.359Z,18.20
2019-02-15T09:31:57.604Z,16.23
2019-02-15T09:34:25.775Z,18.67
2019-02-15T09:36:53.914Z,19.13
2019-02-15T09:39:22.057Z,20.00
2019-02-15T09:41:50.511Z,19.10
2019-02-15T09:44:18.716Z,19.33
2019-02-15T09:46:46.892Z,22.33
2019-02-15T09:49:15.229Z,20.00
2019-02-15T09:51:43.382Z,22.00
2019-02-15T09:54:11.521Z,20.50
2019-02-15T09:56:39.894Z,25.03
2019-02-15T09:59:08.147Z,22.23
2019-02-15T10:01:36.390Z,19.23
2019-02-15T10:04:04.646Z,20.73
2019-02-15T10:06:32.802Z,23.07
2019-02-15T10:09:00.951Z,21.97
2019-02-15T10:11:29.387Z,19.20
2019-02-15T10:13:57.562Z,21.67
2019-02-15T10:16:29.726Z,22.80
2019-02-15T10:18:55.614Z,21.17
2019-02-15T10:21:23.797Z,21.83
2019-02-15T10:23:51.938Z,19.25
2019-02-15T10:26:20.439Z,19.65
2019-02-15T10:28:48.609Z,18.48
2019-02-15T10:31:16.760Z,18.27
2019-02-15T10:33:45.045Z,21.97
2019-02-15T10:36:13.311Z,24.50
2019-02-15T10:38:41.527Z,18.50
2019-02-15T10:41:10.030Z,20.30
2019-02-15T10:43:38.180Z,22.25
2019-02-15T10:46:06.455Z,22.10
2019-02-15T10:48:34.938Z,20.25
2019-02-15T10:51:03.142Z,19.17
2019-02-15T10:53:31.425Z,21.17
2019-02-15T10:56:01.492Z,18.87
2019-02-15T10:58:31.769Z,20.35
2019-02-15T11:00:59.983Z,21.17
2019-02-15T11:03:28.169Z,18.30
2019-02-15T11:05:56.336Z,19.42
2019-02-15T11:08:24.469Z,19.02
2019-02-15T11:10:52.859Z,25.53
2019-02-15T11:13:21.039Z,19.05
2019-02-15T11:15:49.242Z,20.82
2019-02-15T11:18:17.434Z,19.92
2019-02-15T11:20:45.616Z,19.65
2019-02-15T11:23:13.832Z,18.37
2019-02-15T11:25:42.433Z,18.47
2019-02-15T11:28:10.582Z,19.67
2019-02-15T11:30:38.739Z,19.55
2019-02-15T11:33:06.961Z,18.55
2019-02-15T11:35:35.129Z,18.55
2019-02-15T11:38:03.342Z,21.15
2019-02-15T11:40:31.683Z,19.65
2019-02-15T11:42:59.890Z,20.03
2019-02-15T11:45:28.038Z,21.55
2019-02-15T11:47:56.408Z,18.80
2019-02-15T11:50:24.555Z,23.15
2019-02-15T11:52:52.732Z,19.17
2019-02-15T11:55:21.039Z,19.42
2019-02-15T11:57:49.248Z,17.70
2019-02-15T12:00:23.184Z,22.20
2019-02-15T12:02:51.460Z,21.37
2019-02-15T12:05:19.696Z,18.62
2019-02-15T12:07:47.886Z,20.73
2019-02-15T12:10:16.151Z,21.87
2019-02-15T12:12:44.317Z,18.67
2019-02-15T12:15:12.463Z,21.53
2019-02-15T12:17:40.810Z,22.90
2019-02-15T12:20:15.096Z,17.40
2019-02-15T12:22:43.398Z,19.90
2019-02-15T12:25:11.542Z,20.17
2019-02-15T12:27:39.739Z,22.37
2019-02-15T12:30:09.677Z,18.92
2019-02-15T12:32:37.810Z,22.47
2019-02-15T12:35:06.623Z,17.67
2019-02-15T12:37:34.903Z,21.95
2019-02-15T12:40:03.128Z,19.87
2019-02-15T12:42:31.290Z,20.43
2019-02-15T12:44:59.470Z,19.75
2019-02-15T12:47:27.618Z,21.17
2019-02-15T12:49:55.890Z,20.75
2019-02-15T12:52:24.326Z,24.95
2019-02-15T12:54:52.457Z,20.05
2019-02-15T12:57:20.610Z,18.50
2019-02-15T12:59:48.806Z,17.80
2019-02-15T13:02:17.112Z,18.67
2019-02-15T13:04:45.424Z,15.32
2019-02-15T13:07:13.709Z,17.80
2019-02-15T13:09:41.867Z,19.32
2019-02-15T13:12:10.022Z,18.45
2019-02-15T13:14:38.573Z,19.45
2019-02-15T13:17:06.752Z,16.80
2019-02-15T13:19:34.913Z,18.52
2019-02-15T13:22:03.448Z,17.67
2019-02-15T13:24:31.630Z,15.72
2019-02-15T13:26:59.808Z,18.42
2019-02-15T13:29:27.967Z,15.50
2019-02-15T13:31:56.111Z,16.50
2019-02-15T13:34:24.265Z,20.37
2019-02-15T13:36:52.493Z,18.85
2019-02-15T13:39:20.673Z,21.47
2019-02-15T13:41:48.814Z,16.60
2019-02-15T13:44:17.868Z,17.17
2019-02-15T13:46:46.107Z,15.93
2019-02-15T13:49:14.259Z,15.60
2019-02-15T13:51:42.477Z,16.30
2019-02-15T13:54:10.620Z,16.02
2019-02-15T13:56:40.543Z,16.65
2019-02-15T13:59:08.787Z,15.23
2019-02-15T14:01:36.953Z,19.67
2019-02-15T14:04:05.204Z,19.30
2019-02-15T14:06:33.565Z,16.75
2019-02-15T14:09:01.747Z,17.60
2019-02-15T14:11:29.927Z,17.23
2019-02-15T14:13:58.318Z,20.67
2019-02-15T14:16:26.506Z,19.60
2019-02-15T14:18:54.645Z,17.05
2019-02-15T14:21:23.048Z,20.05
2019-02-15T14:23:51.220Z,18.37
2019-02-15T14:26:19.370Z,22.58
2019-02-15T14:28:47.960Z,20.80
2019-02-15T14:31:16.118Z,19.02
2019-02-15T14:33:44.267Z,19.30
2019-02-15T14:36:12.466Z,20.43
2019-02-15T14:38:40.633Z,22.15
2019-02-15T14:41:11.813Z,23.52
2019-02-15T14:43:47.786Z,21.30
2019-02-15T14:46:13.348Z,20.63
2019-02-15T14:48:41.631Z,23.77
2019-02-15T14:51:11.148Z,17.70
2019-02-15T14:53:39.375Z,20.57
2019-02-15T14:56:07.602Z,19.20
2019-02-15T14:58:35.882Z,19.33
2019-02-15T15:01:04.041Z,21.03
2019-02-15T15:03:32.321Z,20.03
2019-02-15T15:06:00.586Z,20.05
2019-02-15T15:08:30.727Z,19.02
2019-02-15T15:10:58.605Z,19.65
2019-02-15T15:13:26.810Z,17.43
2019-02-15T15:15:54.948Z,18.17
2019-02-15T15:18:23.094Z,24.20
2019-02-15T15:20:51.246Z,21.43
2019-02-15T15:23:19.424Z,21.27
2019-02-15T15:25:47.618Z,19.93
2019-02-15T15:28:16.157Z,20.50
2019-02-15T15:30:44.286Z,19.47
2019-02-15T15:33:12.434Z,19.00
2019-02-15T15:35:40.648Z,19.37
2019-02-15T15:38:08.820Z,22.27
2019-02-15T15:40:36.999Z,20.47
2019-02-15T15:43:05.566Z,21.97
2019-02-15T15:45:33.714Z,26.20
2019-02-15T15:48:01.870Z,24.07
2019-02-15T15:50:30.158Z,22.20
2019-02-15T15:52:58.311Z,19.30
2019-02-15T15:55:26.442Z,20.80
2019-02-15T15:57:54.796Z,24.53
2019-02-15T16:00:22.993Z,20.40
2019-02-15T16:02:51.174Z,20.37
2019-02-15T16:05:19.377Z,18.13
2019-02-15T16:07:47.514Z,19.80
2019-02-15T16:10:15.764Z,18.52
2019-02-15T16:12:44.243Z,24.43
2019-02-15T16:15:12.922Z,21.23
2019-02-15T16:17:41.117Z,21.13
2019-02-15T16:20:10.148Z,18.00
2019-02-15T16:22:38.277Z,20.97
2019-02-15T16:25:07.198Z,18.63
2019-02-15T16:27:35.578Z,20.47
2019-02-15T16:30:04.580Z,21.77
2019-02-15T16:32:32.718Z,23.37
2019-02-15T16:35:00.931Z,23.60
2019-02-15T16:37:29.092Z,24.50
2019-02-15T16:39:57.231Z,21.57
2019-02-15T16:42:25.502Z,23.87
2019-02-15T16:44:53.646Z,22.13
2019-02-15T16:47:21.830Z,22.37
2019-02-15T16:49:50.155Z,18.33
2019-02-15T16:52:18.302Z,23.70
2019-02-15T16:54:46.454Z,24.20
2019-02-15T16:57:14.652Z,25.90
2019-02-15T16:59:42.828Z,22.77
2019-02-15T17:02:10.978Z,22.63
2019-02-15T17:04:39.236Z,21.37
2019-02-15T17:07:07.445Z,22.07
2019-02-15T17:09:36.419Z,21.00
2019-02-15T17:12:04.914Z,24.17
2019-02-15T17:14:33.054Z,20.70
2019-02-15T17:17:01.196Z,28.67
2019-02-15T17:19:29.512Z,24.53
2019-02-15T17:21:57.736Z,22.77
2019-02-15T17:24:25.881Z,24.93
2019-02-15T17:26:54.073Z,25.43
2019-02-15T17:29:22.256Z,25.50
2019-02-15T17:31:50.382Z,28.77
2019-02-15T17:34:18.926Z,29.13
2019-02-15T17:36:47.104Z,25.23
2019-02-15T17:39:15.296Z,28.00
2019-02-15T17:41:43.621Z,24.43
2019-02-15T17:44:11.814Z,28.10
2019-02-15T17:46:39.998Z,33.03
2019-02-15T17:49:08.193Z,30.07
2019-02-15T17:51:36.369Z,29.93
2019-02-15T17:54:04.522Z,26.57
2019-02-15T17:56:33.908Z,26.90
2019-02-15T17:59:02.094Z,29.13
2019-02-15T18:01:30.496Z,28.73
2019-02-15T18:03:58.918Z,28.67
2019-02-15T18:06:27.062Z,27.00
2019-02-15T18:08:55.222Z,24.17
2019-02-15T18:11:23.529Z,28.27
2019-02-15T18:13:51.707Z,28.50
2019-02-15T18:16:19.854Z,28.43
2019-02-15T18:18:48.022Z,29.23
2019-02-15T18:21:16.165Z,28.53
2019-02-15T18:23:44.344Z,26.57
2019-02-15T18:26:12.690Z,30.33
2019-02-15T18:28:40.866Z,24.60
2019-02-15T18:31:08.997Z,29.00
2019-02-15T18:33:37.378Z,25.50
2019-02-15T18:36:05.564Z,28.83
2019-02-15T18:38:33.705Z,25.57
2019-02-15T18:41:02.165Z,26.10
2019-02-15T18:43:30.297Z,26.37
2019-02-15T18:45:58.501Z,31.80
2019-02-15T18:48:26.799Z,25.00
2019-02-15T18:50:54.968Z,29.67
2019-02-15T18:53:23.098Z,26.33
2019-02-15T18:55:51.330Z,26.37
2019-02-15T18:58:19.513Z,26.10
2019-02-15T19:00:47.680Z,29.77
2019-02-15T19:03:15.971Z,31.43
2019-02-15T19:05:44.309Z,31.83
2019-02-15T19:08:12.438Z,32.30
2019-02-15T19:10:40.938Z,29.47
2019-02-15T19:13:09.086Z,36.00
2019-02-15T19:15:37.229Z,30.37
2019-02-15T19:18:05.626Z,30.07
2019-02-15T19:20:33.804Z,30.50
2019-02-15T19:23:01.949Z,30.07
2019-02-15T19:25:30.307Z,27.47
2019-02-15T19:27:58.491Z,27.83
2019-02-15T19:30:31.034Z,31.10
2019-02-15T19:32:59.158Z,29.00
2019-02-15T19:35:27.270Z,27.83
2019-02-15T19:37:55.420Z,27.47
2019-02-15T19:40:23.697Z,27.67
2019-02-15T19:42:53.547Z,26.17
2019-02-15T19:45:21.721Z,25.00
2019-02-15T19:47:50.269Z,26.43
2019-02-15T19:50:18.426Z,28.27
2019-02-15T19:52:47.587Z,26.57
2019-02-15T19:55:15.861Z,28.67
2019-02-15T19:57:44.001Z,25.17
2019-02-15T20:00:16.127Z,25.17
2019-02-15T20:02:44.382Z,27.53
2019-02-15T20:05:12.753Z,23.67
2019-02-15T20:07:40.887Z,25.27
2019-02-15T20:10:10.458Z,23.73
2019-02-15T20:12:38.607Z,25.57
2019-02-15T20:15:08.414Z,24.27
2019-02-15T20:17:36.670Z,25.83
2019-02-15T20:20:06.675Z,25.20
2019-02-15T20:22:34.809Z,27.53
2019-02-15T20:25:03.097Z,24.43
2019-02-15T20:27:31.287Z,24.40
2019-02-15T20:29:59.441Z,21.37
2019-02-15T20:32:27.597Z,24.63
2019-02-15T20:34:55.745Z,24.93
2019-02-15T20:37:23.878Z,22.93
2019-02-15T20:39:52.378Z,21.83
2019-02-15T20:42:20.625Z,22.13
2019-02-15T20:44:49.002Z,21.10
2019-02-15T20:47:17.448Z,21.43
2019-02-15T20:49:47.029Z,22.43
2019-02-15T20:52:15.166Z,19.67
2019-02-15T20:54:43.466Z,20.07
2019-02-15T20:57:11.934Z,21.37
2019-02-15T20:59:40.279Z,20.60
2019-02-15T21:02:08.532Z,21.63
2019-02-15T21:04:36.673Z,21.17
2019-02-15T21:07:04.955Z,23.10
2019-02-15T21:09:33.252Z,19.73
2019-02-15T21:12:01.473Z,21.60
2019-02-15T21:14:29.695Z,20.80
2019-02-15T21:16:57.991Z,22.40
2019-02-15T21:19:26.146Z,22.73
2019-02-15T21:21:54.299Z,23.93
2019-02-15T21:24:22.652Z,24.13
2019-02-15T21:26:50.786Z,23.47
2019-02-15T21:29:18.937Z,26.07
2019-02-15T21:31:47.112Z,22.53
2019-02-15T21:34:15.256Z,21.87
2019-02-15T21:36:43.449Z,25.70
2019-02-15T21:39:11.711Z,24.67
2019-02-15T21:41:39.900Z,24.50
2019-02-15T21:44:08.085Z,23.30
2019-02-15T21:46:36.333Z,19.73
2019-02-15T21:49:04.495Z,22.83
2019-02-15T21:51:32.756Z,21.87
2019-02-15T21:54:01.028Z,21.50
2019-02-15T21:56:29.201Z,25.17
2019-02-15T21:58:57.372Z,20.33
2019-02-15T22:01:25.842Z,20.07
2019-02-15T22:03:53.999Z,21.40
2019-02-15T22:06:22.254Z,22.90
2019-02-15T22:08:50.583Z,22.33
2019-02-15T22:11:18.726Z,19.90
2019-02-15T22:13:46.878Z,21.17
2019-02-15T22:16:15.047Z,21.83
2019-02-15T22:18:43.242Z,19.73
2019-02-15T22:21:11.459Z,21.43
2019-02-15T22:23:40.750Z,23.27
2019-02-15T22:26:08.950Z,21.07
2019-02-15T22:28:37.090Z,21.90
2019-02-15T22:31:05.342Z,23.63
2019-02-15T22:33:33.550Z,20.23
2019-02-15T22:36:01.708Z,22.00
2019-02-15T22:38:30.191Z,21.70
2019-02-15T22:41:02.872Z,20.13
2019-02-15T22:43:31.039Z,20.53
2019-02-15T22:45:59.240Z,23.93
2019-02-15T22:48:27.401Z,22.23
2019-02-15T22:50:55.585Z,22.47
2019-02-15T22:53:23.898Z,21.47
2019-02-15T22:55:52.034Z,21.57
2019-02-15T22:58:20.178Z,23.17
2019-02-15T23:00:54.320Z,20.27
2019-02-15T23:03:23.321Z,19.40
2019-02-15T23:05:51.583Z,21.67
2019-02-15T23:08:19.928Z,19.87
2019-02-15T23:10:48.217Z,21.23
2019-02-15T23:13:16.376Z,19.03
2019-02-15T23:15:44.581Z,19.53
2019-02-15T23:18:12.748Z,21.10
2019-02-15T23:20:45.104Z,19.50
2019-02-15T23:23:11.019Z,19.07
2019-02-15T23:25:39.178Z,19.50
2019-02-15T23:28:07.343Z,20.83
2019-02-15T23:30:35.519Z,21.10
2019-02-15T23:33:03.753Z,20.30
2019-02-15T23:35:32.023Z,20.30
2019-02-15T23:38:00.346Z,21.33
2019-02-15T23:40:28.477Z,20.83
2019-02-15T23:42:56.636Z,18.47
2019-02-15T23:45:24.805Z,21.93
2019-02-15T23:47:53.032Z,21.80
2019-02-15T23:50:21.172Z,20.97
2019-02-15T23:52:49.520Z,20.40
2019-02-15T23:55:17.671Z,20.63
2019-02-15T23:57:45.819Z,20.40
